Enter the Airport ICAO Code

Search by Airport or City

Current Weather

SKBO | El Dorado International Airport

Bogotá, Colombia

Last Update 8 Minutes Ago

Mostly Cloudy Sky

Temperature of 12 ºC

Light Winds from East

Temperature

12 ºC

Dew Point Temperature

11 ºC

Relative Humidity

93.63 %

Wind Direction

East (070º, Without Significant Variations)

Wind Velocity

7 km/h (04 kt)

Gusts

None

Visibility

Greater than 10 Kilometers

Sea Level Pressure

30.28 inHg (Inches of Mercury)

Layers of Clouds

5% to 30% of Sky Covered from 518 mts (1700 ft) Above Ground Level.

60% to 90% of Sky Covered from 2438 mts (8000 ft) Above Ground Level.

METAR SKBO 160800Z 07004KT 9999 FEW017 BKN080 12/11 A3028 NOSIG

Weather Forecast

SKBO | El Dorado International Airport

Bogotá, Colombia

Forecast valid for the next 22 Hours

From now on it is expected:

Partly Cloudy Sky

Light Winds from Variable Directions

In 2 hours it is expected the begining of 2 hours with intermittent periods of:

Mist

In 6 to 8 hours it is expected the begining of:

Moderate Winds from East

In 16 to 18 hours it is expected the begining of:

Mostly Cloudy Sky

Light Winds from NorthEast

Maximum Temperature

No Data

Minimum Temperature

No Data

TAF SKBO 160430Z 1606/1706 VRB02KT 9999 SCT020 TEMPO 1610/1612 4000 BR SCT010 BECMG 1614/1616 11010KT PROB40 1620/1622 29010KT 9000 DZ BKN017 BKN070 BECMG 1700/1702 04004KT FEW020 BKN200 TX20/1618Z TN09/1611Z